sensor_id;sensor_type;location;lat;lon;timestamp;temperature;humidity
4548;DHT22;2286;51.570;7.090;2024-01-30T00:01:00;5.10;99.90
4548;DHT22;2286;51.570;7.090;2024-01-30T00:03:27;5.00;99.90
4548;DHT22;2286;51.570;7.090;2024-01-30T00:05:55;5.00;99.90
4548;DHT22;2286;51.570;7.090;2024-01-30T00:08:22;5.00;99.90
4548;DHT22;2286;51.570;7.090;2024-01-30T00:10:49;4.90;99.90
4548;DHT22;2286;51.570;7.090;2024-01-30T00:13:17;4.90;99.90
4548;DHT22;2286;51.570;7.090;2024-01-30T00:15:46;4.90;99.90
4548;DHT22;2286;51.570;7.090;2024-01-30T00:18:14;4.90;99.90
4548;DHT22;2286;51.570;7.090;2024-01-30T00:20:41;4.90;99.90
4548;DHT22;2286;51.570;7.090;2024-01-30T00:23:09;4.80;99.90
4548;DHT22;2286;51.570;7.090;2024-01-30T00:25:36;4.80;99.90
4548;DHT22;2286;51.570;7.090;2024-01-30T00:28:04;4.80;99.90
4548;DHT22;2286;51.570;7.090;2024-01-30T00:30:31;4.80;99.90
4548;DHT22;2286;51.570;7.090;2024-01-30T00:32:59;4.80;99.90
4548;DHT22;2286;51.570;7.090;2024-01-30T00:35:26;4.80;99.90
4548;DHT22;2286;51.570;7.090;2024-01-30T00:37:55;4.80;1.00
4548;DHT22;2286;51.570;7.090;2024-01-30T00:40:23;4.80;1.00
4548;DHT22;2286;51.570;7.090;2024-01-30T00:42:50;4.80;1.00
4548;DHT22;2286;51.570;7.090;2024-01-30T00:45:17;4.70;99.90
4548;DHT22;2286;51.570;7.090;2024-01-30T00:47:44;4.70;99.90
4548;DHT22;2286;51.570;7.090;2024-01-30T00:50:12;4.70;99.90
4548;DHT22;2286;51.570;7.090;2024-01-30T00:52:39;4.70;99.90
4548;DHT22;2286;51.570;7.090;2024-01-30T00:55:07;4.70;1.00
4548;DHT22;2286;51.570;7.090;2024-01-30T00:57:34;4.70;1.00
4548;DHT22;2286;51.570;7.090;2024-01-30T01:00:01;4.70;1.00
4548;DHT22;2286;51.570;7.090;2024-01-30T01:02:29;4.80;1.00
4548;DHT22;2286;51.570;7.090;2024-01-30T01:04:56;4.80;1.00
4548;DHT22;2286;51.570;7.090;2024-01-30T01:07:24;4.80;1.00
4548;DHT22;2286;51.570;7.090;2024-01-30T01:09:51;4.80;1.00
4548;DHT22;2286;51.570;7.090;2024-01-30T01:12:18;4.80;1.00
4548;DHT22;2286;51.570;7.090;2024-01-30T01:14:45;4.80;1.00
4548;DHT22;2286;51.570;7.090;2024-01-30T01:17:12;4.80;1.00
4548;DHT22;2286;51.570;7.090;2024-01-30T01:19:39;4.80;1.00
4548;DHT22;2286;51.570;7.090;2024-01-30T01:22:08;4.80;1.00
4548;DHT22;2286;51.570;7.090;2024-01-30T01:24:36;4.90;1.00
4548;DHT22;2286;51.570;7.090;2024-01-30T01:27:04;4.80;1.00
4548;DHT22;2286;51.570;7.090;2024-01-30T01:29:32;4.80;1.00
4548;DHT22;2286;51.570;7.090;2024-01-30T01:31:59;4.80;99.90
4548;DHT22;2286;51.570;7.090;2024-01-30T01:34:26;4.80;1.00
4548;DHT22;2286;51.570;7.090;2024-01-30T01:36:53;4.80;99.90
4548;DHT22;2286;51.570;7.090;2024-01-30T01:39:22;4.80;99.90
4548;DHT22;2286;51.570;7.090;2024-01-30T01:41:51;4.80;99.90
4548;DHT22;2286;51.570;7.090;2024-01-30T01:44:18;4.80;99.90
4548;DHT22;2286;51.570;7.090;2024-01-30T01:46:45;4.80;99.90
4548;DHT22;2286;51.570;7.090;2024-01-30T01:49:13;4.80;99.90
4548;DHT22;2286;51.570;7.090;2024-01-30T01:51:41;4.80;99.90
4548;DHT22;2286;51.570;7.090;2024-01-30T01:54:10;4.80;99.90
4548;DHT22;2286;51.570;7.090;2024-01-30T01:56:38;4.80;99.90
4548;DHT22;2286;51.570;7.090;2024-01-30T01:59:08;4.80;99.90
4548;DHT22;2286;51.570;7.090;2024-01-30T02:01:36;4.80;99.90
4548;DHT22;2286;51.570;7.090;2024-01-30T02:04:04;4.80;99.90
4548;DHT22;2286;51.570;7.090;2024-01-30T02:06:32;4.80;99.90
4548;DHT22;2286;51.570;7.090;2024-01-30T02:09:00;4.80;99.90
4548;DHT22;2286;51.570;7.090;2024-01-30T02:11:27;4.80;99.90
4548;DHT22;2286;51.570;7.090;2024-01-30T02:13:55;4.70;99.90
4548;DHT22;2286;51.570;7.090;2024-01-30T02:16:23;4.70;99.90
4548;DHT22;2286;51.570;7.090;2024-01-30T02:18:50;4.70;99.90
4548;DHT22;2286;51.570;7.090;2024-01-30T02:21:19;4.60;99.90
4548;DHT22;2286;51.570;7.090;2024-01-30T02:23:47;4.60;99.90
4548;DHT22;2286;51.570;7.090;2024-01-30T02:26:15;4.60;99.90
4548;DHT22;2286;51.570;7.090;2024-01-30T02:28:42;4.60;99.90
4548;DHT22;2286;51.570;7.090;2024-01-30T02:31:09;4.50;99.90
4548;DHT22;2286;51.570;7.090;2024-01-30T02:33:36;4.50;99.90
4548;DHT22;2286;51.570;7.090;2024-01-30T02:36:03;4.50;99.90
4548;DHT22;2286;51.570;7.090;2024-01-30T02:38:32;4.50;99.90
4548;DHT22;2286;51.570;7.090;2024-01-30T02:40:59;4.50;99.90
4548;DHT22;2286;51.570;7.090;2024-01-30T02:43:26;4.40;1.00
4548;DHT22;2286;51.570;7.090;2024-01-30T02:45:53;4.40;1.00
4548;DHT22;2286;51.570;7.090;2024-01-30T02:48:20;4.40;1.00
4548;DHT22;2286;51.570;7.090;2024-01-30T02:50:47;4.30;1.00
4548;DHT22;2286;51.570;7.090;2024-01-30T02:53:14;4.30;1.00
4548;DHT22;2286;51.570;7.090;2024-01-30T02:55:42;4.20;1.00
4548;DHT22;2286;51.570;7.090;2024-01-30T02:58:09;4.20;1.00
4548;DHT22;2286;51.570;7.090;2024-01-30T03:00:36;4.20;1.00
4548;DHT22;2286;51.570;7.090;2024-01-30T03:03:04;4.20;1.00
4548;DHT22;2286;51.570;7.090;2024-01-30T03:05:31;4.20;1.00
4548;DHT22;2286;51.570;7.090;2024-01-30T03:07:58;4.20;1.00
4548;DHT22;2286;51.570;7.090;2024-01-30T03:10:25;4.20;56.00
4548;DHT22;2286;51.570;7.090;2024-01-30T03:12:53;4.10;46.90
4548;DHT22;2286;51.570;7.090;2024-01-30T03:15:20;4.10;6.00
4548;DHT22;2286;51.570;7.090;2024-01-30T03:17:48;4.10;77.30
4548;DHT22;2286;51.570;7.090;2024-01-30T03:20:16;4.10;99.90
4548;DHT22;2286;51.570;7.090;2024-01-30T03:22:43;4.00;99.90
4548;DHT22;2286;51.570;7.090;2024-01-30T03:25:10;4.00;99.90
4548;DHT22;2286;51.570;7.090;2024-01-30T03:27:37;4.10;99.90
4548;DHT22;2286;51.570;7.090;2024-01-30T03:30:07;4.10;99.90
4548;DHT22;2286;51.570;7.090;2024-01-30T03:32:34;4.10;1.00
4548;DHT22;2286;51.570;7.090;2024-01-30T03:35:01;4.00;1.00
4548;DHT22;2286;51.570;7.090;2024-01-30T03:37:28;4.00;1.00
4548;DHT22;2286;51.570;7.090;2024-01-30T03:39:55;4.00;1.00
4548;DHT22;2286;51.570;7.090;2024-01-30T03:42:22;4.00;1.00
4548;DHT22;2286;51.570;7.090;2024-01-30T03:44:49;4.00;1.00
4548;DHT22;2286;51.570;7.090;2024-01-30T03:47:20;4.00;1.00
4548;DHT22;2286;51.570;7.090;2024-01-30T03:49:47;3.90;1.00
4548;DHT22;2286;51.570;7.090;2024-01-30T03:52:14;3.90;1.00
4548;DHT22;2286;51.570;7.090;2024-01-30T03:54:41;3.80;1.00
4548;DHT22;2286;51.570;7.090;2024-01-30T03:57:08;3.80;1.00
4548;DHT22;2286;51.570;7.090;2024-01-30T03:59:35;3.90;1.00
4548;DHT22;2286;51.570;7.090;2024-01-30T04:02:03;3.80;1.00
4548;DHT22;2286;51.570;7.090;2024-01-30T04:04:31;3.80;1.00
4548;DHT22;2286;51.570;7.090;2024-01-30T04:06:58;3.80;1.00
4548;DHT22;2286;51.570;7.090;2024-01-30T04:09:25;3.70;1.00
4548;DHT22;2286;51.570;7.090;2024-01-30T04:11:54;3.70;1.00
4548;DHT22;2286;51.570;7.090;2024-01-30T04:14:21;3.70;1.00
4548;DHT22;2286;51.570;7.090;2024-01-30T04:16:48;3.80;1.00
4548;DHT22;2286;51.570;7.090;2024-01-30T04:19:15;3.80;30.60
4548;DHT22;2286;51.570;7.090;2024-01-30T04:21:43;3.70;98.70
4548;DHT22;2286;51.570;7.090;2024-01-30T04:24:10;3.70;99.90
4548;DHT22;2286;51.570;7.090;2024-01-30T04:26:37;3.70;99.90
4548;DHT22;2286;51.570;7.090;2024-01-30T04:29:04;3.70;99.90
4548;DHT22;2286;51.570;7.090;2024-01-30T04:31:31;3.70;99.90
4548;DHT22;2286;51.570;7.090;2024-01-30T04:33:58;3.70;99.90
4548;DHT22;2286;51.570;7.090;2024-01-30T04:36:25;3.60;99.90
4548;DHT22;2286;51.570;7.090;2024-01-30T04:38:53;3.60;99.90
4548;DHT22;2286;51.570;7.090;2024-01-30T04:41:20;3.60;99.90
4548;DHT22;2286;51.570;7.090;2024-01-30T04:43:47;3.60;99.90
4548;DHT22;2286;51.570;7.090;2024-01-30T04:46:14;3.60;99.90
4548;DHT22;2286;51.570;7.090;2024-01-30T04:48:41;3.60;1.00
4548;DHT22;2286;51.570;7.090;2024-01-30T04:51:08;3.60;1.00
4548;DHT22;2286;51.570;7.090;2024-01-30T04:53:35;3.70;1.00
4548;DHT22;2286;51.570;7.090;2024-01-30T04:56:05;3.70;1.00
4548;DHT22;2286;51.570;7.090;2024-01-30T04:58:32;3.70;1.00
4548;DHT22;2286;51.570;7.090;2024-01-30T05:00:59;3.70;1.00
4548;DHT22;2286;51.570;7.090;2024-01-30T05:03:26;3.60;1.00
4548;DHT22;2286;51.570;7.090;2024-01-30T05:05:53;3.70;1.00
4548;DHT22;2286;51.570;7.090;2024-01-30T05:08:20;3.60;1.00
4548;DHT22;2286;51.570;7.090;2024-01-30T05:10:47;3.70;1.00
4548;DHT22;2286;51.570;7.090;2024-01-30T05:13:15;3.70;18.80
4548;DHT22;2286;51.570;7.090;2024-01-30T05:15:42;3.70;24.90
4548;DHT22;2286;51.570;7.090;2024-01-30T05:18:09;3.70;32.40
4548;DHT22;2286;51.570;7.090;2024-01-30T05:20:36;3.70;1.00
4548;DHT22;2286;51.570;7.090;2024-01-30T05:23:04;3.70;15.90
4548;DHT22;2286;51.570;7.090;2024-01-30T05:25:31;3.70;1.00
4548;DHT22;2286;51.570;7.090;2024-01-30T05:27:58;3.70;1.00
4548;DHT22;2286;51.570;7.090;2024-01-30T05:30:26;3.80;16.70
4548;DHT22;2286;51.570;7.090;2024-01-30T05:32:53;3.70;1.00
4548;DHT22;2286;51.570;7.090;2024-01-30T05:35:20;3.70;1.00
4548;DHT22;2286;51.570;7.090;2024-01-30T05:37:48;3.70;1.00
4548;DHT22;2286;51.570;7.090;2024-01-30T05:40:15;3.70;1.00
4548;DHT22;2286;51.570;7.090;2024-01-30T05:42:43;3.70;1.00
4548;DHT22;2286;51.570;7.090;2024-01-30T05:45:10;3.70;1.00
4548;DHT22;2286;51.570;7.090;2024-01-30T05:47:39;3.70;1.00
4548;DHT22;2286;51.570;7.090;2024-01-30T05:50:07;3.60;1.00
4548;DHT22;2286;51.570;7.090;2024-01-30T05:52:34;3.70;72.70
4548;DHT22;2286;51.570;7.090;2024-01-30T05:55:01;3.70;47.10
4548;DHT22;2286;51.570;7.090;2024-01-30T05:57:28;3.70;99.90
4548;DHT22;2286;51.570;7.090;2024-01-30T05:59:55;3.80;99.90
4548;DHT22;2286;51.570;7.090;2024-01-30T06:02:22;3.90;1.00
4548;DHT22;2286;51.570;7.090;2024-01-30T06:04:50;3.90;1.00
4548;DHT22;2286;51.570;7.090;2024-01-30T06:07:17;3.90;1.00
4548;DHT22;2286;51.570;7.090;2024-01-30T06:09:44;3.90;1.00
4548;DHT22;2286;51.570;7.090;2024-01-30T06:12:12;3.90;1.00
4548;DHT22;2286;51.570;7.090;2024-01-30T06:14:39;3.90;1.00
4548;DHT22;2286;51.570;7.090;2024-01-30T06:17:07;3.90;36.30
4548;DHT22;2286;51.570;7.090;2024-01-30T06:19:35;3.90;99.90
4548;DHT22;2286;51.570;7.090;2024-01-30T06:22:04;4.00;99.90
4548;DHT22;2286;51.570;7.090;2024-01-30T06:24:31;4.00;99.90
4548;DHT22;2286;51.570;7.090;2024-01-30T06:26:59;4.00;99.90
4548;DHT22;2286;51.570;7.090;2024-01-30T06:29:26;4.00;99.90
4548;DHT22;2286;51.570;7.090;2024-01-30T06:31:54;4.10;1.00
4548;DHT22;2286;51.570;7.090;2024-01-30T06:34:21;4.10;1.00
4548;DHT22;2286;51.570;7.090;2024-01-30T06:36:48;4.10;1.00
4548;DHT22;2286;51.570;7.090;2024-01-30T06:39:17;4.10;1.00
4548;DHT22;2286;51.570;7.090;2024-01-30T06:41:44;4.20;1.00
4548;DHT22;2286;51.570;7.090;2024-01-30T06:44:12;4.20;11.80
4548;DHT22;2286;51.570;7.090;2024-01-30T06:46:39;4.20;59.90
4548;DHT22;2286;51.570;7.090;2024-01-30T06:49:06;4.20;99.90
4548;DHT22;2286;51.570;7.090;2024-01-30T06:51:34;4.30;99.90
4548;DHT22;2286;51.570;7.090;2024-01-30T06:54:01;4.30;99.90
4548;DHT22;2286;51.570;7.090;2024-01-30T06:56:30;4.30;99.90
4548;DHT22;2286;51.570;7.090;2024-01-30T06:58:56;4.40;99.90
4548;DHT22;2286;51.570;7.090;2024-01-30T07:01:27;4.40;99.90
4548;DHT22;2286;51.570;7.090;2024-01-30T07:03:55;4.40;99.90
4548;DHT22;2286;51.570;7.090;2024-01-30T07:06:22;4.50;99.90
4548;DHT22;2286;51.570;7.090;2024-01-30T07:08:49;4.60;99.90
4548;DHT22;2286;51.570;7.090;2024-01-30T07:11:18;4.60;99.90
4548;DHT22;2286;51.570;7.090;2024-01-30T07:13:48;4.60;99.90
4548;DHT22;2286;51.570;7.090;2024-01-30T07:16:15;4.60;99.90
4548;DHT22;2286;51.570;7.090;2024-01-30T07:18:43;4.70;99.90
4548;DHT22;2286;51.570;7.090;2024-01-30T07:21:10;4.70;99.90
4548;DHT22;2286;51.570;7.090;2024-01-30T07:23:37;4.80;99.90
4548;DHT22;2286;51.570;7.090;2024-01-30T07:26:05;4.80;99.90
4548;DHT22;2286;51.570;7.090;2024-01-30T07:28:32;4.90;99.90
4548;DHT22;2286;51.570;7.090;2024-01-30T07:31:01;4.90;99.90
4548;DHT22;2286;51.570;7.090;2024-01-30T07:33:29;4.90;99.90
4548;DHT22;2286;51.570;7.090;2024-01-30T07:35:56;5.00;99.90
4548;DHT22;2286;51.570;7.090;2024-01-30T07:38:22;5.00;68.50
4548;DHT22;2286;51.570;7.090;2024-01-30T07:40:50;5.10;24.70
4548;DHT22;2286;51.570;7.090;2024-01-30T07:43:17;5.20;15.00
4548;DHT22;2286;51.570;7.090;2024-01-30T07:45:45;5.30;1.00
4548;DHT22;2286;51.570;7.090;2024-01-30T07:48:14;5.30;1.00
4548;DHT22;2286;51.570;7.090;2024-01-30T07:50:41;5.40;1.00
4548;DHT22;2286;51.570;7.090;2024-01-30T07:53:08;5.50;1.00
4548;DHT22;2286;51.570;7.090;2024-01-30T07:55:35;5.60;1.00
4548;DHT22;2286;51.570;7.090;2024-01-30T07:58:02;5.70;1.00
4548;DHT22;2286;51.570;7.090;2024-01-30T08:00:30;5.80;1.00
4548;DHT22;2286;51.570;7.090;2024-01-30T08:02:57;5.90;1.00
4548;DHT22;2286;51.570;7.090;2024-01-30T08:05:26;6.00;99.90
4548;DHT22;2286;51.570;7.090;2024-01-30T08:07:53;6.10;99.90
4548;DHT22;2286;51.570;7.090;2024-01-30T08:10:20;6.30;99.90
4548;DHT22;2286;51.570;7.090;2024-01-30T08:12:47;6.40;99.90
4548;DHT22;2286;51.570;7.090;2024-01-30T08:15:14;6.60;99.90
4548;DHT22;2286;51.570;7.090;2024-01-30T08:17:41;6.60;1.00
4548;DHT22;2286;51.570;7.090;2024-01-30T08:20:10;6.70;1.00
4548;DHT22;2286;51.570;7.090;2024-01-30T08:22:39;6.80;99.90
4548;DHT22;2286;51.570;7.090;2024-01-30T08:25:07;6.90;99.90
4548;DHT22;2286;51.570;7.090;2024-01-30T08:27:35;6.90;99.90
4548;DHT22;2286;51.570;7.090;2024-01-30T08:30:05;7.00;1.00
4548;DHT22;2286;51.570;7.090;2024-01-30T08:32:32;7.00;1.00
4548;DHT22;2286;51.570;7.090;2024-01-30T08:34:59;7.10;1.00
4548;DHT22;2286;51.570;7.090;2024-01-30T08:37:29;7.20;99.90
4548;DHT22;2286;51.570;7.090;2024-01-30T08:39:57;7.20;99.90
4548;DHT22;2286;51.570;7.090;2024-01-30T08:42:24;7.30;99.90
4548;DHT22;2286;51.570;7.090;2024-01-30T08:44:51;7.50;99.90
4548;DHT22;2286;51.570;7.090;2024-01-30T08:47:18;7.60;1.00
4548;DHT22;2286;51.570;7.090;2024-01-30T08:49:45;7.70;99.90
4548;DHT22;2286;51.570;7.090;2024-01-30T08:52:13;7.80;23.60
4548;DHT22;2286;51.570;7.090;2024-01-30T08:54:40;8.00;1.00
4548;DHT22;2286;51.570;7.090;2024-01-30T08:57:08;8.20;99.90
4548;DHT22;2286;51.570;7.090;2024-01-30T08:59:35;8.40;1.00
4548;DHT22;2286;51.570;7.090;2024-01-30T09:02:02;8.40;99.90
4548;DHT22;2286;51.570;7.090;2024-01-30T09:04:30;8.60;1.00
4548;DHT22;2286;51.570;7.090;2024-01-30T09:06:57;8.80;99.90
4548;DHT22;2286;51.570;7.090;2024-01-30T09:09:24;8.90;1.00
4548;DHT22;2286;51.570;7.090;2024-01-30T09:11:51;9.10;1.00
4548;DHT22;2286;51.570;7.090;2024-01-30T09:14:19;9.20;99.90
4548;DHT22;2286;51.570;7.090;2024-01-30T09:16:46;9.30;34.90
4548;DHT22;2286;51.570;7.090;2024-01-30T09:19:14;9.40;1.00
4548;DHT22;2286;51.570;7.090;2024-01-30T09:21:41;9.50;1.00
4548;DHT22;2286;51.570;7.090;2024-01-30T09:24:08;9.50;1.00
4548;DHT22;2286;51.570;7.090;2024-01-30T09:26:35;9.60;99.90
4548;DHT22;2286;51.570;7.090;2024-01-30T09:29:02;9.80;99.90
4548;DHT22;2286;51.570;7.090;2024-01-30T09:31:31;9.80;99.90
4548;DHT22;2286;51.570;7.090;2024-01-30T09:33:58;9.90;99.90
4548;DHT22;2286;51.570;7.090;2024-01-30T09:36:25;9.90;70.40
4548;DHT22;2286;51.570;7.090;2024-01-30T09:38:53;10.00;12.40
4548;DHT22;2286;51.570;7.090;2024-01-30T09:41:20;10.10;1.00
4548;DHT22;2286;51.570;7.090;2024-01-30T09:43:51;10.30;1.00
4548;DHT22;2286;51.570;7.090;2024-01-30T09:46:18;10.50;1.00
4548;DHT22;2286;51.570;7.090;2024-01-30T09:48:49;10.50;1.00
4548;DHT22;2286;51.570;7.090;2024-01-30T09:51:16;10.60;99.90
4548;DHT22;2286;51.570;7.090;2024-01-30T09:53:44;10.80;99.90
4548;DHT22;2286;51.570;7.090;2024-01-30T09:56:12;10.90;99.90
4548;DHT22;2286;51.570;7.090;2024-01-30T09:58:39;11.10;99.90
4548;DHT22;2286;51.570;7.090;2024-01-30T10:01:07;11.20;99.90
4548;DHT22;2286;51.570;7.090;2024-01-30T10:03:34;11.40;64.50
4548;DHT22;2286;51.570;7.090;2024-01-30T10:06:03;11.60;1.00
4548;DHT22;2286;51.570;7.090;2024-01-30T10:08:30;11.70;1.00
4548;DHT22;2286;51.570;7.090;2024-01-30T10:10:57;11.80;1.00
4548;DHT22;2286;51.570;7.090;2024-01-30T10:13:24;12.00;1.00
4548;DHT22;2286;51.570;7.090;2024-01-30T10:15:53;12.30;99.90
4548;DHT22;2286;51.570;7.090;2024-01-30T10:18:22;12.50;99.90
4548;DHT22;2286;51.570;7.090;2024-01-30T10:20:49;12.80;99.90
4548;DHT22;2286;51.570;7.090;2024-01-30T10:23:18;13.00;99.90
4548;DHT22;2286;51.570;7.090;2024-01-30T10:25:45;13.20;99.90
4548;DHT22;2286;51.570;7.090;2024-01-30T10:28:12;13.40;53.70
4548;DHT22;2286;51.570;7.090;2024-01-30T10:30:39;13.80;1.00
4548;DHT22;2286;51.570;7.090;2024-01-30T10:33:06;13.90;1.00
4548;DHT22;2286;51.570;7.090;2024-01-30T10:35:33;14.10;1.00
4548;DHT22;2286;51.570;7.090;2024-01-30T10:38:00;14.10;1.00
4548;DHT22;2286;51.570;7.090;2024-01-30T10:40:30;14.00;1.00
4548;DHT22;2286;51.570;7.090;2024-01-30T10:43:00;13.90;1.00
4548;DHT22;2286;51.570;7.090;2024-01-30T10:45:28;13.50;1.00
4548;DHT22;2286;51.570;7.090;2024-01-30T10:47:58;13.40;1.00
4548;DHT22;2286;51.570;7.090;2024-01-30T10:50:26;13.40;1.00
4548;DHT22;2286;51.570;7.090;2024-01-30T10:52:55;13.20;1.00
4548;DHT22;2286;51.570;7.090;2024-01-30T10:55:22;13.10;1.00
4548;DHT22;2286;51.570;7.090;2024-01-30T10:57:51;13.10;1.00
4548;DHT22;2286;51.570;7.090;2024-01-30T11:00:19;13.20;1.00
4548;DHT22;2286;51.570;7.090;2024-01-30T11:02:49;13.10;15.50
4548;DHT22;2286;51.570;7.090;2024-01-30T11:05:23;13.10;34.00
4548;DHT22;2286;51.570;7.090;2024-01-30T11:07:51;12.90;50.20
4548;DHT22;2286;51.570;7.090;2024-01-30T11:10:19;12.90;99.90
4548;DHT22;2286;51.570;7.090;2024-01-30T11:12:46;12.90;99.90
4548;DHT22;2286;51.570;7.090;2024-01-30T11:15:15;12.80;99.90
4548;DHT22;2286;51.570;7.090;2024-01-30T11:17:44;12.80;99.90
4548;DHT22;2286;51.570;7.090;2024-01-30T11:20:11;12.80;99.90
4548;DHT22;2286;51.570;7.090;2024-01-30T11:22:42;12.80;99.90
4548;DHT22;2286;51.570;7.090;2024-01-30T11:25:14;12.80;99.90
4548;DHT22;2286;51.570;7.090;2024-01-30T11:27:42;12.80;99.90
4548;DHT22;2286;51.570;7.090;2024-01-30T11:30:09;12.80;99.90
4548;DHT22;2286;51.570;7.090;2024-01-30T11:32:38;12.80;99.90
4548;DHT22;2286;51.570;7.090;2024-01-30T11:35:06;12.70;99.90
4548;DHT22;2286;51.570;7.090;2024-01-30T11:37:37;12.60;99.90
4548;DHT22;2286;51.570;7.090;2024-01-30T11:40:05;12.50;99.90
4548;DHT22;2286;51.570;7.090;2024-01-30T11:42:34;12.40;99.90
4548;DHT22;2286;51.570;7.090;2024-01-30T11:45:05;12.40;99.90
4548;DHT22;2286;51.570;7.090;2024-01-30T11:47:35;12.40;99.90
4548;DHT22;2286;51.570;7.090;2024-01-30T11:50:04;12.40;99.90
4548;DHT22;2286;51.570;7.090;2024-01-30T11:52:32;12.40;99.90
4548;DHT22;2286;51.570;7.090;2024-01-30T11:55:00;12.30;99.90
4548;DHT22;2286;51.570;7.090;2024-01-30T11:57:28;12.30;99.90
4548;DHT22;2286;51.570;7.090;2024-01-30T11:59:55;12.30;99.90
4548;DHT22;2286;51.570;7.090;2024-01-30T12:02:22;12.40;99.90
4548;DHT22;2286;51.570;7.090;2024-01-30T12:04:49;12.40;99.90
4548;DHT22;2286;51.570;7.090;2024-01-30T12:07:17;12.30;99.90
4548;DHT22;2286;51.570;7.090;2024-01-30T12:09:52;12.30;1.00
4548;DHT22;2286;51.570;7.090;2024-01-30T12:12:19;12.30;1.00
4548;DHT22;2286;51.570;7.090;2024-01-30T12:14:48;12.30;1.00
4548;DHT22;2286;51.570;7.090;2024-01-30T12:17:23;12.30;1.00
4548;DHT22;2286;51.570;7.090;2024-01-30T12:19:50;12.30;1.00
4548;DHT22;2286;51.570;7.090;2024-01-30T12:22:21;12.30;1.00
4548;DHT22;2286;51.570;7.090;2024-01-30T12:24:48;12.30;1.00
4548;DHT22;2286;51.570;7.090;2024-01-30T12:27:16;12.30;1.00
4548;DHT22;2286;51.570;7.090;2024-01-30T12:29:43;12.40;1.00
4548;DHT22;2286;51.570;7.090;2024-01-30T12:32:15;12.40;1.00
4548;DHT22;2286;51.570;7.090;2024-01-30T12:34:42;12.40;1.00
4548;DHT22;2286;51.570;7.090;2024-01-30T12:37:09;12.40;1.00
4548;DHT22;2286;51.570;7.090;2024-01-30T12:39:38;12.30;1.00
4548;DHT22;2286;51.570;7.090;2024-01-30T12:42:05;12.30;1.00
4548;DHT22;2286;51.570;7.090;2024-01-30T12:44:32;12.30;1.00
4548;DHT22;2286;51.570;7.090;2024-01-30T12:47:02;12.30;1.00
4548;DHT22;2286;51.570;7.090;2024-01-30T12:49:30;12.40;1.00
4548;DHT22;2286;51.570;7.090;2024-01-30T12:51:57;12.30;1.00
4548;DHT22;2286;51.570;7.090;2024-01-30T12:54:25;12.40;1.00
4548;DHT22;2286;51.570;7.090;2024-01-30T12:56:53;12.30;1.00
4548;DHT22;2286;51.570;7.090;2024-01-30T12:59:21;12.30;1.00
4548;DHT22;2286;51.570;7.090;2024-01-30T13:01:48;12.30;1.00
4548;DHT22;2286;51.570;7.090;2024-01-30T13:04:15;12.30;1.00
4548;DHT22;2286;51.570;7.090;2024-01-30T13:06:42;12.20;1.00
4548;DHT22;2286;51.570;7.090;2024-01-30T13:09:09;12.20;1.00
4548;DHT22;2286;51.570;7.090;2024-01-30T13:11:36;12.20;1.00
4548;DHT22;2286;51.570;7.090;2024-01-30T13:14:05;12.20;1.00
4548;DHT22;2286;51.570;7.090;2024-01-30T13:16:32;12.20;1.00
4548;DHT22;2286;51.570;7.090;2024-01-30T13:19:05;12.20;17.30
4548;DHT22;2286;51.570;7.090;2024-01-30T13:21:38;12.20;28.40
4548;DHT22;2286;51.570;7.090;2024-01-30T13:24:05;12.10;68.70
4548;DHT22;2286;51.570;7.090;2024-01-30T13:26:33;12.10;99.20
4548;DHT22;2286;51.570;7.090;2024-01-30T13:29:00;12.10;99.90
4548;DHT22;2286;51.570;7.090;2024-01-30T13:31:28;12.00;99.90
4548;DHT22;2286;51.570;7.090;2024-01-30T13:33:55;12.00;99.90
4548;DHT22;2286;51.570;7.090;2024-01-30T13:36:22;12.10;99.90
4548;DHT22;2286;51.570;7.090;2024-01-30T13:38:49;12.10;99.90
4548;DHT22;2286;51.570;7.090;2024-01-30T13:41:16;12.10;99.90
4548;DHT22;2286;51.570;7.090;2024-01-30T13:43:43;12.10;99.90
4548;DHT22;2286;51.570;7.090;2024-01-30T13:46:11;12.10;99.90
4548;DHT22;2286;51.570;7.090;2024-01-30T13:48:39;12.10;99.90
4548;DHT22;2286;51.570;7.090;2024-01-30T13:51:06;12.20;99.90
4548;DHT22;2286;51.570;7.090;2024-01-30T13:53:33;12.20;99.90
4548;DHT22;2286;51.570;7.090;2024-01-30T13:56:00;12.20;99.90
4548;DHT22;2286;51.570;7.090;2024-01-30T13:58:27;12.20;99.90
4548;DHT22;2286;51.570;7.090;2024-01-30T14:00:54;12.20;99.90
4548;DHT22;2286;51.570;7.090;2024-01-30T14:03:21;12.20;99.90
4548;DHT22;2286;51.570;7.090;2024-01-30T14:05:50;12.10;99.90
4548;DHT22;2286;51.570;7.090;2024-01-30T14:08:17;12.10;99.90
4548;DHT22;2286;51.570;7.090;2024-01-30T14:10:44;12.00;99.90
4548;DHT22;2286;51.570;7.090;2024-01-30T14:13:11;12.00;99.90
4548;DHT22;2286;51.570;7.090;2024-01-30T14:15:38;12.00;99.90
4548;DHT22;2286;51.570;7.090;2024-01-30T14:18:05;12.00;99.90
4548;DHT22;2286;51.570;7.090;2024-01-30T14:20:34;12.00;99.90
4548;DHT22;2286;51.570;7.090;2024-01-30T14:23:02;12.10;99.90
4548;DHT22;2286;51.570;7.090;2024-01-30T14:25:29;12.10;99.90
4548;DHT22;2286;51.570;7.090;2024-01-30T14:27:56;12.20;99.90
4548;DHT22;2286;51.570;7.090;2024-01-30T14:30:23;12.20;93.00
4548;DHT22;2286;51.570;7.090;2024-01-30T14:32:50;12.30;41.30
4548;DHT22;2286;51.570;7.090;2024-01-30T14:35:17;12.30;5.10
4548;DHT22;2286;51.570;7.090;2024-01-30T14:37:45;12.30;21.40
4548;DHT22;2286;51.570;7.090;2024-01-30T14:40:14;12.40;5.20
4548;DHT22;2286;51.570;7.090;2024-01-30T14:42:41;12.50;1.00
4548;DHT22;2286;51.570;7.090;2024-01-30T14:45:09;12.40;1.00
4548;DHT22;2286;51.570;7.090;2024-01-30T14:47:38;12.40;1.00
4548;DHT22;2286;51.570;7.090;2024-01-30T14:50:06;12.40;1.00
4548;DHT22;2286;51.570;7.090;2024-01-30T14:52:34;12.30;1.00
4548;DHT22;2286;51.570;7.090;2024-01-30T14:55:01;12.30;1.00
4548;DHT22;2286;51.570;7.090;2024-01-30T14:57:30;12.30;1.00
4548;DHT22;2286;51.570;7.090;2024-01-30T14:59:57;12.20;1.00
4548;DHT22;2286;51.570;7.090;2024-01-30T15:02:24;12.20;1.00
4548;DHT22;2286;51.570;7.090;2024-01-30T15:04:51;12.10;1.00
4548;DHT22;2286;51.570;7.090;2024-01-30T15:07:18;12.10;1.00
4548;DHT22;2286;51.570;7.090;2024-01-30T15:09:45;12.10;1.00
4548;DHT22;2286;51.570;7.090;2024-01-30T15:12:12;11.90;1.00
4548;DHT22;2286;51.570;7.090;2024-01-30T15:14:41;11.70;99.90
4548;DHT22;2286;51.570;7.090;2024-01-30T15:17:16;11.70;99.90
4548;DHT22;2286;51.570;7.090;2024-01-30T15:19:43;11.60;99.90
4548;DHT22;2286;51.570;7.090;2024-01-30T15:22:10;11.60;99.90
4548;DHT22;2286;51.570;7.090;2024-01-30T15:24:37;11.50;99.90
4548;DHT22;2286;51.570;7.090;2024-01-30T15:27:04;11.50;1.00
4548;DHT22;2286;51.570;7.090;2024-01-30T15:29:31;11.50;99.90
4548;DHT22;2286;51.570;7.090;2024-01-30T15:32:00;11.40;99.90
4548;DHT22;2286;51.570;7.090;2024-01-30T15:34:27;11.40;99.90
4548;DHT22;2286;51.570;7.090;2024-01-30T15:36:54;11.40;99.90
4548;DHT22;2286;51.570;7.090;2024-01-30T15:39:21;11.40;99.90
4548;DHT22;2286;51.570;7.090;2024-01-30T15:41:51;11.40;99.90
4548;DHT22;2286;51.570;7.090;2024-01-30T15:44:19;11.30;99.90
4548;DHT22;2286;51.570;7.090;2024-01-30T15:46:46;11.30;99.90
4548;DHT22;2286;51.570;7.090;2024-01-30T15:49:15;11.30;99.90
4548;DHT22;2286;51.570;7.090;2024-01-30T15:51:42;11.30;99.90
4548;DHT22;2286;51.570;7.090;2024-01-30T15:54:09;11.20;99.90
4548;DHT22;2286;51.570;7.090;2024-01-30T15:56:36;11.10;99.90
4548;DHT22;2286;51.570;7.090;2024-01-30T15:59:03;11.00;91.10
4548;DHT22;2286;51.570;7.090;2024-01-30T16:01:30;10.90;46.90
4548;DHT22;2286;51.570;7.090;2024-01-30T16:03:57;10.80;55.10
4548;DHT22;2286;51.570;7.090;2024-01-30T16:06:25;10.70;49.10
4548;DHT22;2286;51.570;7.090;2024-01-30T16:08:52;10.70;47.80
4548;DHT22;2286;51.570;7.090;2024-01-30T16:11:19;10.60;49.90
4548;DHT22;2286;51.570;7.090;2024-01-30T16:13:46;10.50;25.30
4548;DHT22;2286;51.570;7.090;2024-01-30T16:16:16;10.50;26.80
4548;DHT22;2286;51.570;7.090;2024-01-30T16:18:43;10.40;48.10